RJAH METAR and TAF | Updated Today

RJAH METAR

Hyakuri Airport

Observation time: 31 min. ago

RJAH 061900Z 35003KT 9999 FEW030 BKN140 04/00 Q1019

Need help? Read our tutorial on how to read METARs or read the parsed version below.

Hyakuri Airport (RJAH) METAR

  • Weather conditions on Mon, 06 Feb 2023 19:00:00 +0000 (31 min. ago):
  • Present conditions: Dry
  • Clouds: A few at 914 meters; broken sky at 4267 meters
  • Visibility: Greater than 10 km
  • Wind: 350 degrees at 3 knots
  • Temperature: 4 celsius
  • Dew point: 0 celsius
  • Pressure: 1019 millibars
  • Remarks: None


Useful to know...

RJAH TAF

Hyakuri Airport

TAF RJAH 061712Z 0618/0800 36005KT 9999 FEW030 TEMPO 0712/0721 4000 -SHRA BR
Observation time: 2:19 hr. ago
Need help? Read our tutorial on how to read TAFs or read the parsed version below.

Parsed version of TAF for Hyakuri Airport (RJAH)

  • From 06 February at 18:00 UTC, to day 08 of the month at 00:00 UTC
  • Clouds: A few at 914 meters
  • Visibility: Greater than 10 km
  • Wind: 360 degrees at 5
  • Expected to arise temporarily, from 07 February at 12:00 UTC, to day 07 of the month at 21:00 UTC
  • Visibility: 4000 meters
  • Other: Light showers of rain; mist